sensor_id;sensor_type;location;lat;lon;timestamp;pressure;altitude;pressure_sealevel;temperature;humidity
31011;BME280;26395;53.412;19.598;2023-03-03T00:04:08;100695.52;;;3.30;67.83
31011;BME280;26395;53.412;19.598;2023-03-03T00:19:14;100678.10;;;3.29;67.77
31011;BME280;26395;53.412;19.598;2023-03-03T00:34:26;100671.48;;;3.26;68.17
31011;BME280;26395;53.412;19.598;2023-03-03T00:49:30;100667.52;;;3.23;68.24
31011;BME280;26395;53.412;19.598;2023-03-03T01:04:33;100669.23;;;3.20;68.07
31011;BME280;26395;53.412;19.598;2023-03-03T01:19:37;100657.27;;;3.00;68.19
31011;BME280;26395;53.412;19.598;2023-03-03T01:34:40;100642.55;;;2.87;68.69
31011;BME280;26395;53.412;19.598;2023-03-03T01:49:49;100605.90;;;2.63;70.10
31011;BME280;26395;53.412;19.598;2023-03-03T02:04:54;100579.75;;;2.40;72.14
31011;BME280;26395;53.412;19.598;2023-03-03T02:35:27;100568.75;;;2.32;72.22
31011;BME280;26395;53.412;19.598;2023-03-03T02:50:31;100552.36;;;2.17;74.25
31011;BME280;26395;53.412;19.598;2023-03-03T03:05:34;100557.81;;;2.26;72.74
31011;BME280;26395;53.412;19.598;2023-03-03T03:20:38;100553.42;;;2.06;73.91
31011;BME280;26395;53.412;19.598;2023-03-03T03:35:43;100552.47;;;2.12;73.09
31011;BME280;26395;53.412;19.598;2023-03-03T03:50:50;100552.79;;;2.26;72.84
31011;BME280;26395;53.412;19.598;2023-03-03T04:05:54;100557.42;;;2.27;73.36
31011;BME280;26395;53.412;19.598;2023-03-03T04:20:58;100542.61;;;2.12;75.06
31011;BME280;26395;53.412;19.598;2023-03-03T04:36:03;100543.36;;;2.03;75.42
31011;BME280;26395;53.412;19.598;2023-03-03T04:51:06;100529.69;;;2.01;74.70
31011;BME280;26395;53.412;19.598;2023-03-03T05:06:10;100518.62;;;1.91;75.51
31011;BME280;26395;53.412;19.598;2023-03-03T05:21:14;100510.01;;;1.94;74.61
31011;BME280;26395;53.412;19.598;2023-03-03T05:36:17;100528.13;;;2.01;74.33
31011;BME280;26395;53.412;19.598;2023-03-03T05:51:21;100533.14;;;2.18;74.80
31011;BME280;26395;53.412;19.598;2023-03-03T06:06:26;100530.25;;;2.14;75.87
31011;BME280;26395;53.412;19.598;2023-03-03T06:21:30;100560.27;;;2.25;76.74
31011;BME280;26395;53.412;19.598;2023-03-03T06:36:33;100568.32;;;2.37;77.95
31011;BME280;26395;53.412;19.598;2023-03-03T06:51:38;100574.10;;;2.53;78.05
31011;BME280;26395;53.412;19.598;2023-03-03T07:06:42;100590.17;;;2.59;78.04
31011;BME280;26395;53.412;19.598;2023-03-03T07:21:45;100606.16;;;2.75;76.61
31011;BME280;26395;53.412;19.598;2023-03-03T07:36:51;100601.04;;;2.60;78.66
31011;BME280;26395;53.412;19.598;2023-03-03T07:51:56;100612.94;;;2.53;80.51
31011;BME280;26395;53.412;19.598;2023-03-03T08:07:02;100628.12;;;2.61;81.36
31011;BME280;26395;53.412;19.598;2023-03-03T08:22:14;100627.25;;;2.78;82.53
31011;BME280;26395;53.412;19.598;2023-03-03T08:37:18;100617.33;;;2.87;84.13
31011;BME280;26395;53.412;19.598;2023-03-03T08:52:21;100599.98;;;2.88;85.20
31011;BME280;26395;53.412;19.598;2023-03-03T09:07:24;100596.46;;;2.86;87.63
31011;BME280;26395;53.412;19.598;2023-03-03T09:22:32;100587.20;;;3.18;86.95
31011;BME280;26395;53.412;19.598;2023-03-03T09:37:39;100585.31;;;3.34;87.78
31011;BME280;26395;53.412;19.598;2023-03-03T09:53:11;100590.42;;;3.43;88.51
31011;BME280;26395;53.412;19.598;2023-03-03T10:39:53;100581.37;;;4.17;85.87
31011;BME280;26395;53.412;19.598;2023-03-03T11:25:32;100521.58;;;5.04;83.81
31011;BME280;26395;53.412;19.598;2023-03-03T11:56:22;100508.73;;;5.54;80.06
31011;BME280;26395;53.412;19.598;2023-03-03T12:11:38;100498.09;;;5.93;79.76
31011;BME280;26395;53.412;19.598;2023-03-03T12:42:15;100466.75;;;7.06;74.06
31011;BME280;26395;53.412;19.598;2023-03-03T12:57:44;100451.69;;;8.56;71.54
31011;BME280;26395;53.412;19.598;2023-03-03T13:28:05;100436.02;;;10.83;63.25
31011;BME280;26395;53.412;19.598;2023-03-03T13:43:21;100422.02;;;10.02;62.24
31011;BME280;26395;53.412;19.598;2023-03-03T13:58:38;100412.91;;;13.53;56.84
31011;BME280;26395;53.412;19.598;2023-03-03T14:29:28;100394.21;;;10.56;56.48
31011;BME280;26395;53.412;19.598;2023-03-03T14:44:37;100379.82;;;8.53;61.30
31011;BME280;26395;53.412;19.598;2023-03-03T15:00:24;100374.95;;;7.56;64.50
31011;BME280;26395;53.412;19.598;2023-03-03T15:15:28;100354.05;;;7.01;67.79
31011;BME280;26395;53.412;19.598;2023-03-03T15:30:38;100338.71;;;6.87;68.79
31011;BME280;26395;53.412;19.598;2023-03-03T16:31:44;100315.83;;;5.64;74.03
31011;BME280;26395;53.412;19.598;2023-03-03T16:46:50;100309.41;;;5.43;75.29
31011;BME280;26395;53.412;19.598;2023-03-03T17:17:35;100291.88;;;5.12;76.21
31011;BME280;26395;53.412;19.598;2023-03-03T17:32:56;100291.11;;;5.05;76.71
31011;BME280;26395;53.412;19.598;2023-03-03T17:48:14;100276.27;;;4.87;77.06
31011;BME280;26395;53.412;19.598;2023-03-03T18:19:11;100239.98;;;4.64;79.90
31011;BME280;26395;53.412;19.598;2023-03-03T18:34:40;100235.81;;;4.58;80.23
31011;BME280;26395;53.412;19.598;2023-03-03T18:49:54;100223.73;;;4.58;79.97
31011;BME280;26395;53.412;19.598;2023-03-03T19:05:07;100206.65;;;4.57;79.56
31011;BME280;26395;53.412;19.598;2023-03-03T19:20:20;100196.55;;;4.55;79.81
31011;BME280;26395;53.412;19.598;2023-03-03T19:51:16;100179.36;;;4.42;80.74
31011;BME280;26395;53.412;19.598;2023-03-03T20:06:40;100155.23;;;4.54;80.86
31011;BME280;26395;53.412;19.598;2023-03-03T20:37:31;100112.55;;;4.53;82.60
31011;BME280;26395;53.412;19.598;2023-03-03T21:07:59;100083.36;;;4.54;83.65
31011;BME280;26395;53.412;19.598;2023-03-03T21:23:08;100060.48;;;4.43;84.46
31011;BME280;26395;53.412;19.598;2023-03-03T21:38:31;100051.52;;;4.45;84.76
31011;BME280;26395;53.412;19.598;2023-03-03T21:53:42;100038.52;;;4.45;84.95
31011;BME280;26395;53.412;19.598;2023-03-03T22:08:50;100015.98;;;4.43;86.02
31011;BME280;26395;53.412;19.598;2023-03-03T22:23:57;99995.77;;;4.58;85.78
31011;BME280;26395;53.412;19.598;2023-03-03T22:39:00;99986.40;;;4.66;85.06
31011;BME280;26395;53.412;19.598;2023-03-03T22:54:05;99970.99;;;4.73;84.66
31011;BME280;26395;53.412;19.598;2023-03-03T23:09:12;99935.05;;;4.70;84.46
31011;BME280;26395;53.412;19.598;2023-03-03T23:24:16;99879.44;;;4.67;84.24
31011;BME280;26395;53.412;19.598;2023-03-03T23:39:19;99843.27;;;4.62;83.75
31011;BME280;26395;53.412;19.598;2023-03-03T23:54:22;99814.96;;;4.68;83.40
